Time;durP1;ratioP1;P1;durP2;ratioP2;P2;SDS_P1;SDS_P2;PMS_P1;PMS_P2;Temp;Humidity;BMP_temperature;BMP_pressure;BME280_temperature;BME280_humidity;BME280_pressure;Samples;Min_cycle;Max_cycle;Signal;HPM_P1;HPM_P2
2021/10/05 00:01:58;;;;;;;8.10;4.23;;;;;;;;;;5013987;28;20946;-74
2021/10/05 00:04:25;;;;;;;5.47;4.37;;;;;;;;;;5013881;28;20443;-74
2021/10/05 00:06:52;;;;;;;5.00;4.60;;;;;;;;;;5013785;28;20492;-74
2021/10/05 00:09:20;;;;;;;5.10;4.60;;;;;;;;;;5013525;28;20505;-74
2021/10/05 00:11:47;;;;;;;9.40;4.20;;;;;;;;;;5013569;28;20454;-74
2021/10/05 00:14:15;;;;;;;4.67;4.27;;;;;;;;;;5012923;28;20446;-74
2021/10/05 00:16:43;;;;;;;6.33;4.43;;;;;;;;;;5013810;28;20443;-74
2021/10/05 00:19:10;;;;;;;5.60;4.90;;;;;;;;;;5014023;28;20457;-74
2021/10/05 00:21:37;;;;;;;5.70;4.30;;;;;;;;;;5013727;28;20449;-74
2021/10/05 00:24:05;;;;;;;5.50;3.87;;;;;;;;;;5013432;28;20453;-75
2021/10/05 00:26:32;;;;;;;4.97;3.97;;;;;;;;;;5013570;28;20477;-75
2021/10/05 00:28:59;;;;;;;4.47;4.07;;;;;;;;;;5013598;28;20457;-75
2021/10/05 00:31:27;;;;;;;5.63;4.40;;;;;;;;;;5013313;28;20452;-75
2021/10/05 00:33:55;;;;;;;5.67;4.53;;;;;;;;;;5013604;28;20443;-75
2021/10/05 00:36:22;;;;;;;4.80;4.40;;;;;;;;;;5013297;28;20457;-76
2021/10/05 00:38:49;;;;;;;6.40;4.67;;;;;;;;;;5013285;28;20952;-76
2021/10/05 00:41:16;;;;;;;4.40;4.00;;;;;;;;;;5013541;28;20798;-76
2021/10/05 00:43:43;;;;;;;4.10;3.80;;;;;;;;;;5013558;28;20487;-76
2021/10/05 00:46:11;;;;;;;7.73;4.70;;;;;;;;;;5013413;28;20490;-75
2021/10/05 00:48:39;;;;;;;6.40;4.97;;;;;;;;;;5013891;28;20542;-74
2021/10/05 00:51:06;;;;;;;5.10;4.60;;;;;;;;;;5013492;28;20534;-74
2021/10/05 00:53:33;;;;;;;6.83;4.90;;;;;;;;;;5013092;28;20442;-74
2021/10/05 00:56:01;;;;;;;4.60;4.30;;;;;;;;;;5013717;28;20449;-74
2021/10/05 00:58:29;;;;;;;4.90;4.50;;;;;;;;;;5013078;28;20466;-74
2021/10/05 01:00:56;;;;;;;4.53;4.13;;;;;;;;;;5013099;28;20454;-74
2021/10/05 01:03:23;;;;;;;5.00;4.57;;;;;;;;;;5013291;28;20449;-74
2021/10/05 01:05:51;;;;;;;7.53;4.77;;;;;;;;;;5013620;28;20831;-74
2021/10/05 01:08:22;;;;;;;7.03;4.40;;;;;;;;;;5013538;28;20454;-74
2021/10/05 01:10:49;;;;;;;4.23;3.90;;;;;;;;;;5013244;28;20442;-74
2021/10/05 01:13:16;;;;;;;5.33;4.77;;;;;;;;;;5013340;28;20451;-74
2021/10/05 01:15:44;;;;;;;6.13;4.97;;;;;;;;;;5012923;28;20444;-75
2021/10/05 01:18:11;;;;;;;4.77;4.37;;;;;;;;;;5013240;28;20450;-75
2021/10/05 01:20:51;;;;;;;5.77;4.73;;;;;;;;;;5013318;28;20443;-74
2021/10/05 01:23:19;;;;;;;6.20;4.50;;;;;;;;;;5013740;28;20427;-74
2021/10/05 01:25:46;;;;;;;5.60;4.50;;;;;;;;;;5013774;28;20489;-74
2021/10/05 01:28:14;;;;;;;5.80;4.77;;;;;;;;;;5016660;28;20439;-74
2021/10/05 01:30:41;;;;;;;5.90;5.33;;;;;;;;;;5016840;28;20465;-74
2021/10/05 01:33:08;;;;;;;5.10;4.50;;;;;;;;;;5016963;28;20449;-74
2021/10/05 01:35:36;;;;;;;5.87;4.97;;;;;;;;;;5016827;28;20453;-74
2021/10/05 01:38:05;;;;;;;7.97;5.23;;;;;;;;;;5016475;28;20442;-74
2021/10/05 01:40:32;;;;;;;6.57;5.47;;;;;;;;;;5016658;28;20439;-76
2021/10/05 01:42:59;;;;;;;5.80;5.30;;;;;;;;;;5016004;28;20485;-75
2021/10/05 01:45:26;;;;;;;5.83;5.30;;;;;;;;;;5015992;28;20440;-75
2021/10/05 01:47:54;;;;;;;4.93;4.53;;;;;;;;;;5016337;28;20534;-75
2021/10/05 01:50:21;;;;;;;6.43;4.70;;;;;;;;;;5015924;28;20522;-75
2021/10/05 01:52:49;;;;;;;5.90;5.40;;;;;;;;;;5016396;28;20941;-74
2021/10/05 01:55:19;;;;;;;5.50;5.00;;;;;;;;;;5016179;28;20782;-74
2021/10/05 01:57:46;;;;;;;7.50;5.80;;;;;;;;;;5016191;28;20451;-74
2021/10/05 02:00:14;;;;;;;6.73;5.60;;;;;;;;;;5016426;28;20453;-74
2021/10/05 02:02:41;;;;;;;5.43;4.93;;;;;;;;;;5015979;28;20454;-74
2021/10/05 02:05:09;;;;;;;5.27;4.80;;;;;;;;;;5015679;28;20945;-74
2021/10/05 02:07:36;;;;;;;4.97;4.50;;;;;;;;;;5015834;28;20482;-74
2021/10/05 02:10:04;;;;;;;6.27;5.70;;;;;;;;;;5015913;28;20448;-74
2021/10/05 02:12:32;;;;;;;5.60;5.00;;;;;;;;;;5015806;28;20459;-74
2021/10/05 02:15:00;;;;;;;5.57;5.10;;;;;;;;;;5016574;28;20438;-74
2021/10/05 02:17:27;;;;;;;6.47;5.87;;;;;;;;;;5016002;28;20453;-74
2021/10/05 02:19:54;;;;;;;6.57;5.30;;;;;;;;;;5015414;28;20442;-74
2021/10/05 02:22:21;;;;;;;5.87;5.37;;;;;;;;;;5015364;28;20454;-74
2021/10/05 02:24:48;;;;;;;6.50;5.60;;;;;;;;;;5015306;28;20454;-74
2021/10/05 02:27:16;;;;;;;9.70;5.30;;;;;;;;;;5015181;28;20477;-75
2021/10/05 02:29:45;;;;;;;5.47;4.60;;;;;;;;;;5015776;28;20444;-75
2021/10/05 02:32:14;;;;;;;6.60;5.90;;;;;;;;;;5015570;28;20447;-75
2021/10/05 02:34:41;;;;;;;5.73;5.20;;;;;;;;;;5015372;28;20450;-75
2021/10/05 02:37:08;;;;;;;6.30;5.80;;;;;;;;;;5014445;28;20461;-75
2021/10/05 02:39:36;;;;;;;5.70;5.10;;;;;;;;;;5014650;28;20449;-75
2021/10/05 02:42:03;;;;;;;5.23;4.73;;;;;;;;;;5014899;28;20565;-75
2021/10/05 02:44:30;;;;;;;5.80;5.20;;;;;;;;;;5014780;28;20478;-75
2021/10/05 02:46:59;;;;;;;6.87;5.30;;;;;;;;;;5014613;28;20485;-75
2021/10/05 02:49:26;;;;;;;6.57;5.53;;;;;;;;;;5014665;28;20435;-75
2021/10/05 02:51:53;;;;;;;6.00;5.40;;;;;;;;;;5014738;28;20455;-74
2021/10/05 02:54:20;;;;;;;5.60;5.10;;;;;;;;;;5014630;28;20447;-75
2021/10/05 02:56:47;;;;;;;6.93;5.13;;;;;;;;;;5014898;28;20443;-75
2021/10/05 02:59:16;;;;;;;5.20;4.70;;;;;;;;;;5015132;28;20444;-75
2021/10/05 03:01:43;;;;;;;5.83;5.10;;;;;;;;;;5014372;28;20541;-75
2021/10/05 03:04:12;;;;;;;9.30;5.70;;;;;;;;;;5014386;28;20454;-75
2021/10/05 03:06:39;;;;;;;5.70;5.20;;;;;;;;;;5014249;28;20474;-75
2021/10/05 03:09:06;;;;;;;5.40;4.90;;;;;;;;;;5014262;28;20959;-75
2021/10/05 03:11:33;;;;;;;5.77;5.27;;;;;;;;;;5014514;28;20450;-75
2021/10/05 03:14:00;;;;;;;6.23;5.33;;;;;;;;;;5014434;28;20450;-75
2021/10/05 03:16:27;;;;;;;5.27;4.77;;;;;;;;;;5014762;28;20454;-74
2021/10/05 03:18:55;;;;;;;6.63;5.53;;;;;;;;;;5014743;28;20446;-74
2021/10/05 03:21:23;;;;;;;7.93;5.87;;;;;;;;;;5014430;28;20861;-75
2021/10/05 03:23:50;;;;;;;6.40;5.37;;;;;;;;;;5014003;28;20460;-75
2021/10/05 03:26:18;;;;;;;6.10;5.50;;;;;;;;;;5013898;28;20987;-74
2021/10/05 03:28:45;;;;;;;6.80;6.20;;;;;;;;;;5014243;28;20548;-74
2021/10/05 03:31:12;;;;;;;7.30;5.90;;;;;;;;;;5013859;28;20447;-74
2021/10/05 03:33:40;;;;;;;7.33;6.73;;;;;;;;;;5014139;28;20470;-74
2021/10/05 03:36:07;;;;;;;7.10;6.37;;;;;;;;;;5014101;28;20438;-74
2021/10/05 03:38:36;;;;;;;6.67;5.70;;;;;;;;;;5014124;28;20932;-74
2021/10/05 03:41:03;;;;;;;6.17;5.67;;;;;;;;;;5013698;28;20448;-74
2021/10/05 03:43:30;;;;;;;6.83;5.47;;;;;;;;;;5014018;28;20474;-74
2021/10/05 03:45:58;;;;;;;6.67;6.03;;;;;;;;;;5013953;28;20435;-74
2021/10/05 03:48:25;;;;;;;7.13;5.93;;;;;;;;;;5013715;28;20478;-74
2021/10/05 03:50:52;;;;;;;6.87;6.30;;;;;;;;;;5013647;28;20971;-74
2021/10/05 03:53:20;;;;;;;8.43;6.63;;;;;;;;;;5013493;28;20448;-74
2021/10/05 03:55:51;;;;;;;6.90;6.13;;;;;;;;;;5013727;28;20797;-74
2021/10/05 03:58:18;;;;;;;6.00;5.40;;;;;;;;;;5013551;28;20500;-74
2021/10/05 04:00:45;;;;;;;6.30;5.70;;;;;;;;;;5013440;28;20447;-74
2021/10/05 04:03:13;;;;;;;6.53;5.93;;;;;;;;;;5013389;28;20545;-74
2021/10/05 04:05:40;;;;;;;7.07;6.10;;;;;;;;;;5014149;28;20461;-74
2021/10/05 04:08:09;;;;;;;8.20;6.40;;;;;;;;;;5013558;28;20478;-74
2021/10/05 04:10:36;;;;;;;7.97;6.10;;;;;;;;;;5013890;28;20443;-74
2021/10/05 04:13:05;;;;;;;7.50;6.57;;;;;;;;;;5013880;28;20549;-74
2021/10/05 04:15:32;;;;;;;6.80;6.20;;;;;;;;;;5013348;28;20500;-75
2021/10/05 04:17:59;;;;;;;7.30;6.40;;;;;;;;;;5013536;28;20452;-76
2021/10/05 04:20:26;;;;;;;6.97;6.37;;;;;;;;;;5013420;28;20446;-75
2021/10/05 04:22:54;;;;;;;6.30;5.80;;;;;;;;;;5013511;28;20873;-75
2021/10/05 04:25:21;;;;;;;6.97;6.37;;;;;;;;;;5013526;28;20527;-75
2021/10/05 04:27:48;;;;;;;9.00;6.30;;;;;;;;;;5013520;28;20474;-75
2021/10/05 04:30:17;;;;;;;6.80;6.20;;;;;;;;;;4998653;28;20487;-75
2021/10/05 04:32:44;;;;;;;7.93;7.13;;;;;;;;;;4993049;28;20459;-74
2021/10/05 04:35:11;;;;;;;7.80;7.10;;;;;;;;;;4993376;28;20458;-75
2021/10/05 04:37:39;;;;;;;7.20;6.30;;;;;;;;;;4993297;28;20949;-75
2021/10/05 04:40:07;;;;;;;8.47;7.67;;;;;;;;;;4993337;28;20458;-74
2021/10/05 04:42:34;;;;;;;7.03;6.43;;;;;;;;;;4993108;28;21005;-75
2021/10/05 04:45:02;;;;;;;7.50;6.90;;;;;;;;;;4993252;28;20444;-75
2021/10/05 04:47:30;;;;;;;7.70;6.90;;;;;;;;;;4993188;28;20271;-74
2021/10/05 04:49:57;;;;;;;8.00;7.20;;;;;;;;;;4993457;28;20446;-73
2021/10/05 04:52:25;;;;;;;7.00;6.00;;;;;;;;;;4993144;28;20507;-74
2021/10/05 04:54:52;;;;;;;11.02;7.63;;;;;;;;;;4993208;28;20193;-74
2021/10/05 04:57:20;;;;;;;7.17;6.57;;;;;;;;;;4993247;28;20197;-76
2021/10/05 04:59:47;;;;;;;8.10;7.30;;;;;;;;;;4993059;28;20455;-77
2021/10/05 05:02:14;;;;;;;7.77;7.00;;;;;;;;;;4996147;28;20459;-78
2021/10/05 05:04:43;;;;;;;9.37;8.57;;;;;;;;;;4996743;28;20933;-76
2021/10/05 05:07:10;;;;;;;9.27;8.37;;;;;;;;;;4996833;28;20474;-77
2021/10/05 05:09:37;;;;;;;11.20;7.60;;;;;;;;;;4997185;28;20884;-78
2021/10/05 05:12:05;;;;;;;8.40;7.60;;;;;;;;;;4996904;28;20447;-77
2021/10/05 05:14:32;;;;;;;9.47;8.20;;;;;;;;;;4996665;28;20467;-77
2021/10/05 05:16:59;;;;;;;9.60;8.70;;;;;;;;;;4996739;28;20535;-77
2021/10/05 05:19:26;;;;;;;8.90;8.07;;;;;;;;;;4996760;28;20800;-76
2021/10/05 05:21:59;;;;;;;9.15;7.85;;;;;;;;;;4996656;28;20283;-77
2021/10/05 05:24:26;;;;;;;8.77;7.97;;;;;;;;;;4996485;28;20645;-77
2021/10/05 05:26:53;;;;;;;8.77;7.97;;;;;;;;;;4996255;28;20981;-77
2021/10/05 05:29:20;;;;;;;9.25;8.20;;;;;;;;;;4996686;28;20462;-77
2021/10/05 05:31:48;;;;;;;10.15;8.30;;;;;;;;;;4996470;28;20199;-76
2021/10/05 05:34:16;;;;;;;9.23;8.43;;;;;;;;;;4996714;28;20200;-81
2021/10/05 05:36:43;;;;;;;11.60;10.40;;;;;;;;;;4995382;28;20456;-79
2021/10/05 05:39:11;;;;;;;11.43;10.23;;;;;;;;;;4996448;28;20539;-71
2021/10/05 05:41:39;;;;;;;10.93;9.37;;;;;;;;;;4996107;28;20239;-71
2021/10/05 05:44:06;;;;;;;8.93;8.03;;;;;;;;;;4996679;28;20515;-77
2021/10/05 05:46:33;;;;;;;11.05;9.95;;;;;;;;;;4996762;28;20531;-79
2021/10/05 05:49:00;;;;;;;10.10;9.10;;;;;;;;;;4996317;28;20228;-77
2021/10/05 05:51:28;;;;;;;11.80;10.60;;;;;;;;;;4996925;28;20448;-78
2021/10/05 05:53:55;;;;;;;14.17;11.77;;;;;;;;;;4996799;28;20534;-78
2021/10/05 05:56:23;;;;;;;15.20;10.27;;;;;;;;;;4996134;28;20448;-78
2021/10/05 05:58:53;;;;;;;11.17;9.77;;;;;;;;;;4996385;28;20444;-77
2021/10/05 06:01:21;;;;;;;13.97;10.70;;;;;;;;;;4996115;28;20460;-78
2021/10/05 06:03:50;;;;;;;12.00;10.83;;;;;;;;;;4996299;28;20451;-78
2021/10/05 06:06:17;;;;;;;10.43;9.43;;;;;;;;;;4996541;28;20455;-79
2021/10/05 06:08:45;;;;;;;11.60;10.40;;;;;;;;;;4996220;28;20494;-77
2021/10/05 06:11:12;;;;;;;11.30;10.20;;;;;;;;;;4996684;28;20498;-76
2021/10/05 06:13:41;;;;;;;11.03;9.93;;;;;;;;;;4996814;28;20554;-77
2021/10/05 06:16:08;;;;;;;11.17;10.03;;;;;;;;;;4996165;28;20956;-77
2021/10/05 06:18:35;;;;;;;11.80;10.33;;;;;;;;;;4996306;28;20440;-77
2021/10/05 06:21:02;;;;;;;10.40;9.40;;;;;;;;;;4995728;28;20458;-77
2021/10/05 06:23:30;;;;;;;11.37;10.10;;;;;;;;;;4995768;28;20941;-77
2021/10/05 06:25:57;;;;;;;12.90;11.30;;;;;;;;;;4996098;28;20528;-76
2021/10/05 06:28:24;;;;;;;12.90;10.37;;;;;;;;;;4995895;28;20479;-78
2021/10/05 06:30:52;;;;;;;12.23;11.00;;;;;;;;;;4996113;28;20454;-78
2021/10/05 06:33:20;;;;;;;12.90;10.30;;;;;;;;;;4995818;28;20789;-78
2021/10/05 06:35:47;;;;;;;12.83;11.10;;;;;;;;;;4996618;28;20443;-78
2021/10/05 06:38:15;;;;;;;14.57;10.60;;;;;;;;;;4995779;28;20460;-77
2021/10/05 06:40:43;;;;;;;13.30;10.60;;;;;;;;;;4995671;28;20447;-77
2021/10/05 06:43:10;;;;;;;12.53;10.87;;;;;;;;;;4995764;28;20483;-77
2021/10/05 06:45:38;;;;;;;13.20;9.87;;;;;;;;;;4995793;28;20447;-77
2021/10/05 06:48:07;;;;;;;10.40;9.30;;;;;;;;;;4995195;28;20494;-77
2021/10/05 06:50:34;;;;;;;13.60;10.57;;;;;;;;;;4995673;28;20444;-77
2021/10/05 06:53:02;;;;;;;11.00;9.90;;;;;;;;;;4995206;28;20497;-77
2021/10/05 06:55:29;;;;;;;12.10;10.17;;;;;;;;;;4995480;28;20440;-77
2021/10/05 06:57:56;;;;;;;11.50;10.40;;;;;;;;;;4995067;28;20462;-77
2021/10/05 07:00:23;;;;;;;10.80;9.70;;;;;;;;;;4995049;28;20444;-77
2021/10/05 07:02:51;;;;;;;12.50;10.53;;;;;;;;;;4995285;28;20539;-77
2021/10/05 07:05:20;;;;;;;10.83;9.73;;;;;;;;;;4995215;28;20440;-77
2021/10/05 07:07:48;;;;;;;11.20;10.10;;;;;;;;;;4994820;28;20475;-77
2021/10/05 07:10:17;;;;;;;12.10;11.00;;;;;;;;;;4995229;28;20980;-77
2021/10/05 07:12:44;;;;;;;13.20;9.03;;;;;;;;;;4994618;28;20444;-77
2021/10/05 07:15:12;;;;;;;11.47;10.00;;;;;;;;;;4995278;28;20452;-77
2021/10/05 07:17:40;;;;;;;10.10;9.10;;;;;;;;;;4994943;28;20945;-77
2021/10/05 07:20:08;;;;;;;10.37;9.47;;;;;;;;;;4994970;28;20803;-77
2021/10/05 07:22:36;;;;;;;11.57;10.27;;;;;;;;;;4994570;28;20960;-78
2021/10/05 07:25:04;;;;;;;11.70;9.73;;;;;;;;;;4994089;28;20442;-77
2021/10/05 07:27:31;;;;;;;10.93;9.83;;;;;;;;;;4995129;28;20476;-77
2021/10/05 07:30:01;;;;;;;11.00;9.90;;;;;;;;;;4995645;28;20442;-77
2021/10/05 07:32:28;;;;;;;9.87;8.87;;;;;;;;;;4994386;28;20933;-76
2021/10/05 07:34:55;;;;;;;16.60;13.80;;;;;;;;;;4994430;28;20456;-77
2021/10/05 07:37:22;;;;;;;17.43;13.10;;;;;;;;;;4994771;28;20871;-76
2021/10/05 07:39:51;;;;;;;12.40;10.30;;;;;;;;;;4994669;28;20448;-77
2021/10/05 07:42:20;;;;;;;10.20;9.30;;;;;;;;;;4993803;28;20486;-77
2021/10/05 07:44:48;;;;;;;10.73;9.63;;;;;;;;;;4993502;28;20440;-77
2021/10/05 07:47:15;;;;;;;10.53;9.63;;;;;;;;;;4993816;28;20440;-77
2021/10/05 07:49:42;;;;;;;11.30;10.17;;;;;;;;;;4993672;28;20842;-77
2021/10/05 07:52:09;;;;;;;10.10;9.10;;;;;;;;;;4993752;28;20530;-77
2021/10/05 07:54:37;;;;;;;10.60;9.57;;;;;;;;;;4993330;28;20448;-77
2021/10/05 07:57:06;;;;;;;10.60;9.60;;;;;;;;;;4993367;28;20452;-78
2021/10/05 07:59:33;;;;;;;9.67;8.77;;;;;;;;;;4993354;28;20447;-77
2021/10/05 08:02:01;;;;;;;9.90;9.00;;;;;;;;;;4993231;28;20448;-76
2021/10/05 08:04:28;;;;;;;9.30;8.50;;;;;;;;;;4993566;28;20466;-77
2021/10/05 08:06:55;;;;;;;11.80;8.83;;;;;;;;;;4993507;28;20848;-77
2021/10/05 08:09:23;;;;;;;9.63;8.70;;;;;;;;;;4993484;28;20825;-78
2021/10/05 08:11:50;;;;;;;10.23;9.33;;;;;;;;;;4993433;28;20444;-77
2021/10/05 08:14:18;;;;;;;11.77;9.10;;;;;;;;;;4993648;28;20437;-77
2021/10/05 08:16:47;;;;;;;9.37;8.47;;;;;;;;;;4993339;28;20451;-77
2021/10/05 08:19:14;;;;;;;10.57;9.47;;;;;;;;;;4993615;28;20475;-77
2021/10/05 08:21:42;;;;;;;11.00;9.20;;;;;;;;;;4993031;28;20444;-77
2021/10/05 08:24:09;;;;;;;11.53;7.90;;;;;;;;;;4992992;28;20956;-78
2021/10/05 08:26:37;;;;;;;10.77;9.73;;;;;;;;;;4992900;28;20448;-77
2021/10/05 08:29:04;;;;;;;9.30;8.37;;;;;;;;;;4993686;28;20479;-78
2021/10/05 08:31:33;;;;;;;10.43;9.07;;;;;;;;;;4992881;28;20452;-77
2021/10/05 08:34:01;;;;;;;19.03;10.23;;;;;;;;;;4992359;28;20460;-77
2021/10/05 08:36:28;;;;;;;16.33;10.33;;;;;;;;;;4994946;28;20440;-78
2021/10/05 08:38:55;;;;;;;11.70;8.83;;;;;;;;;;4996607;28;20446;-78
2021/10/05 08:41:23;;;;;;;12.43;10.03;;;;;;;;;;4996284;28;20539;-77
2021/10/05 08:43:51;;;;;;;13.55;8.88;;;;;;;;;;4960239;28;1090882;-77
2021/10/05 08:46:18;;;;;;;9.20;8.30;;;;;;;;;;4998666;28;20192;-76
2021/10/05 08:48:47;;;;;;;10.93;8.43;;;;;;;;;;4997607;28;20480;-78
2021/10/05 08:51:14;;;;;;;10.17;7.73;;;;;;;;;;4998102;28;20441;-77
2021/10/05 08:53:41;;;;;;;12.57;8.37;;;;;;;;;;4997377;28;20452;-77
2021/10/05 08:56:09;;;;;;;15.33;8.53;;;;;;;;;;4997219;28;20480;-77
2021/10/05 08:58:36;;;;;;;10.47;8.70;;;;;;;;;;4997631;28;20487;-77
2021/10/05 09:01:08;;;;;;;8.87;7.93;;;;;;;;;;4997577;28;20444;-78
2021/10/05 09:03:35;;;;;;;10.20;9.17;;;;;;;;;;4997190;28;20968;-77
2021/10/05 09:06:11;;;;;;;11.90;10.17;;;;;;;;;;4997711;28;20436;-77
2021/10/05 09:08:40;;;;;;;8.97;8.07;;;;;;;;;;4997635;28;20973;-78
2021/10/05 09:11:08;;;;;;;8.23;7.50;;;;;;;;;;4997672;28;20523;-78
2021/10/05 09:13:38;;;;;;;8.23;7.40;;;;;;;;;;4997036;28;20459;-78
2021/10/05 09:16:16;;;;;;;8.20;7.40;;;;;;;;;;4996994;28;20443;-78
2021/10/05 09:18:51;;;;;;;8.30;7.30;;;;;;;;;;4997039;28;20434;-78
2021/10/05 09:21:20;;;;;;;6.90;6.40;;;;;;;;;;4997214;28;20909;-78
2021/10/05 09:23:52;;;;;;;7.20;6.10;;;;;;;;;;4997210;28;20535;-77
2021/10/05 09:26:19;;;;;;;6.80;6.20;;;;;;;;;;4996966;28;20934;-78
2021/10/05 09:28:47;;;;;;;7.03;5.97;;;;;;;;;;4996710;28;20578;-77
2021/10/05 09:31:16;;;;;;;6.83;6.13;;;;;;;;;;4997088;28;20476;-77
2021/10/05 09:33:53;;;;;;;7.60;6.90;;;;;;;;;;4996700;28;20448;-76
2021/10/05 09:36:27;;;;;;;5.97;5.47;;;;;;;;;;4996883;28;20433;-77
2021/10/05 09:39:02;;;;;;;8.30;6.57;;;;;;;;;;4996523;28;20460;-78
2021/10/05 09:41:29;;;;;;;6.07;5.47;;;;;;;;;;4996648;28;20433;-77
2021/10/05 09:44:03;;;;;;;5.70;5.27;;;;;;;;;;4996164;28;20570;-79
2021/10/05 09:46:31;;;;;;;7.20;5.57;;;;;;;;;;4996755;28;20434;-79
2021/10/05 09:49:01;;;;;;;6.20;5.40;;;;;;;;;;4996635;28;20489;-78
2021/10/05 09:51:30;;;;;;;7.50;5.90;;;;;;;;;;4997361;28;20442;-78
2021/10/05 09:53:58;;;;;;;9.70;5.17;;;;;;;;;;4997343;28;20472;-77
2021/10/05 09:56:25;;;;;;;6.53;5.43;;;;;;;;;;4996599;28;20445;-78
2021/10/05 09:58:53;;;;;;;8.00;5.90;;;;;;;;;;4996174;28;20448;-78
2021/10/05 10:01:20;;;;;;;7.97;6.33;;;;;;;;;;4996160;28;20537;-78
2021/10/05 10:03:48;;;;;;;8.57;6.40;;;;;;;;;;4997122;28;20472;-78
2021/10/05 10:06:16;;;;;;;8.20;6.30;;;;;;;;;;4996406;28;20473;-78
2021/10/05 10:08:46;;;;;;;9.00;6.57;;;;;;;;;;4996167;28;20562;-78
2021/10/05 10:11:14;;;;;;;9.53;5.33;;;;;;;;;;4996022;28;20531;-77
2021/10/05 10:13:43;;;;;;;7.20;6.50;;;;;;;;;;4996010;28;20447;-79
2021/10/05 10:16:10;;;;;;;5.40;4.90;;;;;;;;;;4996297;28;20455;-78
2021/10/05 10:18:38;;;;;;;6.20;4.80;;;;;;;;;;4995916;28;20456;-78
2021/10/05 10:21:07;;;;;;;6.53;4.90;;;;;;;;;;4996190;28;20445;-79
2021/10/05 10:23:34;;;;;;;5.17;4.67;;;;;;;;;;4995877;28;20500;-79
2021/10/05 10:26:04;;;;;;;6.80;4.40;;;;;;;;;;4995793;28;20541;-79
2021/10/05 10:28:33;;;;;;;5.20;4.73;;;;;;;;;;4995764;28;20436;-78
2021/10/05 10:31:02;;;;;;;5.47;3.90;;;;;;;;;;4995737;28;20449;-78
2021/10/05 10:33:30;;;;;;;4.80;4.40;;;;;;;;;;4996424;28;20445;-78
2021/10/05 10:35:59;;;;;;;4.57;4.17;;;;;;;;;;4995924;28;20441;-77
2021/10/05 10:38:28;;;;;;;4.40;4.10;;;;;;;;;;4995585;28;20453;-78
2021/10/05 10:40:55;;;;;;;3.53;3.23;;;;;;;;;;4995999;28;20527;-78
2021/10/05 10:43:27;;;;;;;7.03;3.30;;;;;;;;;;4996119;28;20477;-78
2021/10/05 10:45:56;;;;;;;3.77;3.43;;;;;;;;;;4996149;28;20438;-78
2021/10/05 10:48:27;;;;;;;4.83;4.30;;;;;;;;;;4995552;28;20446;-78
2021/10/05 10:50:54;;;;;;;5.57;3.40;;;;;;;;;;4995645;28;20450;-78
2021/10/05 10:53:32;;;;;;;4.10;3.73;;;;;;;;;;4995255;28;20440;-79
2021/10/05 10:55:59;;;;;;;3.30;2.93;;;;;;;;;;4996014;28;20423;-80
2021/10/05 10:58:34;;;;;;;5.47;2.70;;;;;;;;;;4994950;28;20449;-79
2021/10/05 11:01:01;;;;;;;2.47;2.37;;;;;;;;;;4995427;28;20459;-80
2021/10/05 11:03:29;;;;;;;2.90;2.70;;;;;;;;;;4995031;28;20876;-79
2021/10/05 11:05:56;;;;;;;2.60;2.23;;;;;;;;;;4995970;28;20448;-79
2021/10/05 11:08:23;;;;;;;2.27;2.07;;;;;;;;;;4994994;28;20448;-77
2021/10/05 11:10:50;;;;;;;4.80;2.33;;;;;;;;;;4995955;28;20511;-77
2021/10/05 11:13:17;;;;;;;5.07;1.73;;;;;;;;;;4994828;28;20446;-79
2021/10/05 11:15:48;;;;;;;3.10;2.27;;;;;;;;;;4995183;28;20438;-79
2021/10/05 11:18:16;;;;;;;3.40;2.00;;;;;;;;;;4995154;28;20451;-79
2021/10/05 11:20:45;;;;;;;2.50;1.40;;;;;;;;;;4994972;28;20543;-78
2021/10/05 11:23:13;;;;;;;2.03;1.50;;;;;;;;;;4995375;28;20800;-78
2021/10/05 11:25:46;;;;;;;1.60;1.50;;;;;;;;;;4994984;28;20839;-79
2021/10/05 11:28:14;;;;;;;1.73;1.63;;;;;;;;;;4995501;28;20438;-79
2021/10/05 11:30:50;;;;;;;1.90;1.70;;;;;;;;;;4995038;28;20492;-79
2021/10/05 11:33:21;;;;;;;3.20;1.97;;;;;;;;;;4994559;28;20441;-79
2021/10/05 11:35:49;;;;;;;8.53;2.20;;;;;;;;;;4994711;28;20476;-80
2021/10/05 11:38:16;;;;;;;14.17;3.30;;;;;;;;;;4994686;28;20457;-80
2021/10/05 11:40:57;;;;;;;2.23;1.60;;;;;;;;;;4994313;28;20452;-79
2021/10/05 11:43:35;;;;;;;5.67;1.73;;;;;;;;;;4994421;28;20513;-77
2021/10/05 11:46:09;;;;;;;4.73;1.47;;;;;;;;;;4994229;28;20503;-81
2021/10/05 11:48:41;;;;;;;3.63;1.43;;;;;;;;;;4994778;28;20494;-72
2021/10/05 11:51:08;;;;;;;4.07;1.77;;;;;;;;;;4994308;28;20444;-83
2021/10/05 11:53:36;;;;;;;2.50;1.30;;;;;;;;;;4995183;28;20440;-83
2021/10/05 11:56:07;;;;;;;2.93;1.70;;;;;;;;;;4994787;28;20437;-83
2021/10/05 11:58:48;;;;;;;5.13;1.73;;;;;;;;;;4994032;28;20440;-85
2021/10/05 12:01:20;;;;;;;1.93;1.60;;;;;;;;;;4995531;28;20910;-83
2021/10/05 12:03:48;;;;;;;1.50;1.30;;;;;;;;;;4994209;28;20444;-84
2021/10/05 12:06:26;;;;;;;4.30;1.37;;;;;;;;;;4993318;28;20449;-82
2021/10/05 12:08:53;;;;;;;1.77;1.40;;;;;;;;;;4993959;28;20519;-86
2021/10/05 12:11:20;;;;;;;1.57;1.47;;;;;;;;;;4993258;28;20444;-84
2021/10/05 12:13:47;;;;;;;3.30;2.63;;;;;;;;;;4993331;28;20464;-85
2021/10/05 12:16:15;;;;;;;3.87;2.67;;;;;;;;;;4993034;28;20488;-83
2021/10/05 12:18:43;;;;;;;2.50;1.43;;;;;;;;;;4993683;28;20451;-83
2021/10/05 12:21:14;;;;;;;3.43;1.60;;;;;;;;;;4993644;28;20456;-85
2021/10/05 12:23:50;;;;;;;4.10;1.73;;;;;;;;;;4993490;28;20508;-84
2021/10/05 12:26:17;;;;;;;1.50;1.40;;;;;;;;;;4993625;28;20456;-80
2021/10/05 12:28:55;;;;;;;2.13;1.37;;;;;;;;;;4993533;28;20534;-84
2021/10/05 12:31:24;;;;;;;2.53;1.97;;;;;;;;;;4993573;28;20433;-83
2021/10/05 12:33:56;;;;;;;3.20;1.60;;;;;;;;;;4993589;28;20539;-85
2021/10/05 12:36:24;;;;;;;3.43;1.57;;;;;;;;;;4993651;28;20854;-83
2021/10/05 12:38:51;;;;;;;3.97;2.00;;;;;;;;;;4994078;28;20887;-81
2021/10/05 12:41:19;;;;;;;3.33;2.03;;;;;;;;;;4993371;28;20459;-81
2021/10/05 12:43:47;;;;;;;1.77;1.60;;;;;;;;;;4993430;28;20975;-82
2021/10/05 12:46:15;;;;;;;3.30;1.50;;;;;;;;;;4993740;28;20468;-82
2021/10/05 12:48:43;;;;;;;9.90;2.37;;;;;;;;;;4993201;28;20450;-84
2021/10/05 12:51:14;;;;;;;3.43;1.60;;;;;;;;;;4993706;28;20473;-84
2021/10/05 12:53:42;;;;;;;4.17;2.30;;;;;;;;;;4993701;28;20435;-83
2021/10/05 12:56:09;;;;;;;2.83;1.57;;;;;;;;;;4993187;28;21044;-86
2021/10/05 12:58:37;;;;;;;4.20;1.90;;;;;;;;;;4992758;28;20511;-85
2021/10/05 13:01:04;;;;;;;2.73;1.43;;;;;;;;;;4993304;28;20441;-81
2021/10/05 13:03:32;;;;;;;2.00;1.77;;;;;;;;;;4993302;28;20451;-83
2021/10/05 13:05:59;;;;;;;3.90;1.70;;;;;;;;;;4993205;28;20541;-86
2021/10/05 13:08:27;;;;;;;1.70;1.50;;;;;;;;;;4993287;28;20442;-82
2021/10/05 13:10:55;;;;;;;3.70;1.40;;;;;;;;;;4993432;28;20573;-80
2021/10/05 13:13:22;;;;;;;2.13;1.53;;;;;;;;;;4993067;28;20495;-77
2021/10/05 13:15:50;;;;;;;2.80;1.80;;;;;;;;;;4992538;28;20503;-79
2021/10/05 13:18:17;;;;;;;1.40;1.30;;;;;;;;;;4993323;28;20538;-69
2021/10/05 13:20:47;;;;;;;6.40;1.70;;;;;;;;;;4993374;28;20473;-69
2021/10/05 13:23:14;;;;;;;4.40;1.73;;;;;;;;;;4996319;28;20483;-70
2021/10/05 13:25:43;;;;;;;4.77;1.80;;;;;;;;;;4997135;28;20866;-70
2021/10/05 13:28:10;;;;;;;2.17;1.50;;;;;;;;;;4995962;28;20865;-70
2021/10/05 13:30:38;;;;;;;2.10;1.63;;;;;;;;;;4995272;28;20480;-71
2021/10/05 13:33:05;;;;;;;3.13;1.60;;;;;;;;;;4996604;28;20520;-71
2021/10/05 13:35:33;;;;;;;5.23;2.50;;;;;;;;;;4998560;28;20451;-68
2021/10/05 13:38:00;;;;;;;4.80;2.13;;;;;;;;;;5009959;28;20438;-78
2021/10/05 13:40:28;;;;;;;2.57;2.37;;;;;;;;;;5007728;28;20612;-74
2021/10/05 13:42:57;;;;;;;4.43;3.13;;;;;;;;;;5010700;28;21009;-72
2021/10/05 13:45:24;;;;;;;2.40;1.60;;;;;;;;;;5016279;28;20546;-74
2021/10/05 13:47:52;;;;;;;1.80;1.70;;;;;;;;;;5016154;28;20461;-73
2021/10/05 13:50:19;;;;;;;3.53;1.73;;;;;;;;;;5016203;28;20480;-79
2021/10/05 13:52:47;;;;;;;2.80;1.80;;;;;;;;;;5015860;28;20441;-81
2021/10/05 13:55:14;;;;;;;2.10;1.90;;;;;;;;;;5015334;28;20540;-75
2021/10/05 13:57:41;;;;;;;6.67;1.77;;;;;;;;;;5015770;28;20517;-77
2021/10/05 14:00:11;;;;;;;5.70;1.70;;;;;;;;;;5015757;28;20445;-77
2021/10/05 14:02:38;;;;;;;2.50;1.87;;;;;;;;;;5016121;28;20448;-74
2021/10/05 14:05:06;;;;;;;2.23;1.83;;;;;;;;;;5015951;28;20433;-76
2021/10/05 14:07:33;;;;;;;1.90;1.70;;;;;;;;;;5015067;28;20451;-77
2021/10/05 14:10:00;;;;;;;3.03;1.70;;;;;;;;;;5014657;28;21012;-78
2021/10/05 14:12:27;;;;;;;4.13;2.03;;;;;;;;;;5015467;28;20466;-78
2021/10/05 14:14:55;;;;;;;6.20;1.77;;;;;;;;;;5014872;28;20450;-77
2021/10/05 14:17:23;;;;;;;2.50;2.30;;;;;;;;;;5015323;28;20473;-78
2021/10/05 14:19:51;;;;;;;1.80;1.70;;;;;;;;;;5015476;28;20527;-78
2021/10/05 14:22:19;;;;;;;2.83;1.67;;;;;;;;;;5014876;28;20445;-78
2021/10/05 14:24:53;;;;;;;2.57;1.90;;;;;;;;;;5015085;28;20457;-76
2021/10/05 14:27:22;;;;;;;3.20;2.00;;;;;;;;;;5015869;28;20892;-77
2021/10/05 14:29:49;;;;;;;2.53;2.30;;;;;;;;;;5014677;28;20475;-77
2021/10/05 14:32:16;;;;;;;3.17;1.60;;;;;;;;;;5014917;28;20469;-77
2021/10/05 14:34:45;;;;;;;4.20;1.67;;;;;;;;;;5013528;28;20533;-77
2021/10/05 14:37:12;;;;;;;3.83;1.80;;;;;;;;;;5014789;28;20442;-77
2021/10/05 14:39:39;;;;;;;2.47;2.10;;;;;;;;;;5015218;28;20546;-77
2021/10/05 14:42:06;;;;;;;2.37;1.73;;;;;;;;;;5015062;28;20481;-78
2021/10/05 14:44:33;;;;;;;2.07;1.87;;;;;;;;;;5014119;28;20442;-79